createdAt,value
2018-06-09T00:00:46.000Z,48.557
2018-06-09T00:10:46.000Z,47.767
2018-06-09T00:20:46.000Z,46.902
2018-06-09T00:30:46.000Z,46.059
2018-06-09T00:40:46.000Z,45.944
2018-06-09T00:50:47.000Z,45.466
2018-06-09T01:00:46.000Z,45.209
2018-06-09T01:10:46.000Z,45.37
2018-06-09T01:20:46.000Z,45.167
2018-06-09T01:30:46.000Z,45.078
2018-06-09T01:40:46.000Z,44.93
2018-06-09T01:50:46.000Z,44.461
2018-06-09T02:00:46.000Z,44.105
2018-06-09T02:10:46.000Z,43.84
2018-06-09T02:30:46.000Z,43.34
2018-06-09T02:40:46.000Z,42.685
2018-06-09T02:50:46.000Z,43.002
2018-06-09T03:00:46.000Z,42.968
2018-06-09T03:10:46.000Z,43.423
2018-06-09T03:20:46.000Z,43.499
2018-06-09T03:30:46.000Z,43.662
2018-06-09T03:40:46.000Z,44.057
2018-06-09T03:50:46.000Z,44.373
2018-06-09T04:00:46.000Z,44.438
2018-06-09T04:10:46.000Z,44.469
2018-06-09T04:20:46.000Z,44.64
2018-06-09T04:30:46.000Z,44.65
2018-06-09T04:40:46.000Z,44.505
2018-06-09T04:50:47.000Z,44.623
2018-06-09T05:00:46.000Z,44.469
2018-06-09T05:10:46.000Z,44.372
2018-06-09T05:20:46.000Z,44.251
2018-06-09T05:30:46.000Z,44.079
2018-06-09T05:40:47.000Z,44.125
2018-06-09T05:50:46.000Z,44.259
2018-06-09T06:00:46.000Z,44.183
2018-06-09T06:10:46.000Z,44.272
2018-06-09T06:20:46.000Z,44.363
2018-06-09T06:30:46.000Z,44.463
2018-06-09T06:40:46.000Z,44.478
2018-06-09T06:50:46.000Z,44.579
2018-06-09T07:00:47.000Z,44.442
2018-06-09T07:10:47.000Z,44.653
2018-06-09T07:20:47.000Z,44.799
2018-06-09T07:40:47.000Z,44.337
2018-06-09T07:50:48.000Z,44.108
2018-06-09T08:00:47.000Z,44.158
2018-06-09T08:10:47.000Z,44.016
2018-06-09T08:20:47.000Z,43.829
2018-06-09T08:30:47.000Z,43.759
2018-06-09T08:40:47.000Z,44.046
2018-06-09T08:50:47.000Z,44.127
2018-06-09T09:00:47.000Z,43.935
2018-06-09T09:10:47.000Z,43.586
2018-06-09T09:20:47.000Z,43.445
2018-06-09T09:30:47.000Z,43.26
2018-06-09T09:40:47.000Z,43.25
2018-06-09T09:50:47.000Z,43.291
2018-06-09T10:00:47.000Z,43.142
2018-06-09T10:10:47.000Z,43.236
2018-06-09T10:20:47.000Z,43.486
2018-06-09T10:30:47.000Z,43.425
2018-06-09T10:40:47.000Z,43.647
2018-06-09T10:50:47.000Z,43.363
2018-06-09T11:00:47.000Z,42.86
2018-06-09T11:10:47.000Z,42.945
2018-06-09T11:20:47.000Z,43.794
2018-06-09T11:30:47.000Z,42.823
2018-06-09T11:40:47.000Z,43.353
2018-06-09T11:50:47.000Z,43.185
2018-06-09T12:00:47.000Z,43.062
2018-06-09T12:10:47.000Z,43.716
2018-06-09T12:20:47.000Z,43.379
2018-06-09T12:30:47.000Z,43.514
2018-06-09T12:40:47.000Z,43.971
2018-06-09T12:50:47.000Z,43.454
2018-06-09T13:00:47.000Z,43.474
2018-06-09T13:10:47.000Z,43.033
2018-06-09T13:20:47.000Z,42.558
2018-06-09T13:30:47.000Z,42.717
2018-06-09T13:40:47.000Z,42.712
2018-06-09T13:50:47.000Z,42.584
2018-06-09T14:00:47.000Z,42.357
2018-06-09T14:10:47.000Z,42.747
2018-06-09T14:20:47.000Z,42.794
2018-06-09T14:30:47.000Z,42.981
2018-06-09T14:40:47.000Z,42.881
2018-06-09T15:00:48.000Z,42.915
2018-06-09T15:10:48.000Z,42.771
2018-06-09T15:20:48.000Z,43.027
2018-06-09T15:30:48.000Z,42.858
2018-06-09T15:40:48.000Z,42.958
2018-06-09T15:50:48.000Z,43
2018-06-09T16:00:49.000Z,42.869
2018-06-09T16:10:48.000Z,42.486
2018-06-09T16:20:48.000Z,42.429
2018-06-09T16:40:48.000Z,42.507
2018-06-09T16:50:48.000Z,42.445
2018-06-09T17:00:48.000Z,43.007
2018-06-09T17:10:48.000Z,43.248
2018-06-09T17:20:48.000Z,43.309
2018-06-09T17:30:48.000Z,43.765
2018-06-09T17:40:49.000Z,43.607
2018-06-09T17:50:48.000Z,43.992
2018-06-09T18:00:48.000Z,44.102
2018-06-09T18:10:48.000Z,44.567
2018-06-09T18:20:49.000Z,44.794
2018-06-09T18:30:48.000Z,45.2
2018-06-09T18:40:48.000Z,45.042
2018-06-09T18:50:48.000Z,45.182
2018-06-09T19:00:48.000Z,45.289
2018-06-09T19:10:48.000Z,45.631
2018-06-09T19:30:49.000Z,45.92
2018-06-09T19:40:49.000Z,46.317
2018-06-09T19:50:48.000Z,46.301
2018-06-09T20:00:48.000Z,41.521
2018-06-09T20:10:48.000Z,41.211
2018-06-09T20:20:48.000Z,41.942
2018-06-09T20:30:48.000Z,43.937
2018-06-09T20:40:49.000Z,44.381
2018-06-09T20:50:48.000Z,45.172
2018-06-09T21:00:48.000Z,45.826
2018-06-09T21:10:48.000Z,45.555
2018-06-09T21:20:48.000Z,45.803
2018-06-09T21:30:48.000Z,46.216
2018-06-09T21:40:48.000Z,46.335
2018-06-09T21:50:48.000Z,46.37
2018-06-09T22:00:48.000Z,46.963
2018-06-09T22:10:48.000Z,47.149
2018-06-09T22:20:48.000Z,47.385
2018-06-09T22:30:48.000Z,47.898
2018-06-09T22:40:48.000Z,47.954
2018-06-09T22:50:49.000Z,48.259
2018-06-09T23:00:48.000Z,48.639
2018-06-09T23:10:49.000Z,48.766
2018-06-09T23:20:49.000Z,48.582
2018-06-09T23:30:49.000Z,48.592
2018-06-09T23:40:49.000Z,48.59
2018-06-09T23:50:49.000Z,48.865
